Terminal Aerodrome Forecast
Issued by NWS

Home | Current Version | Previous Version | Text Only | Print | Product List | Glossary On
Versions: 1 2 3 4 5 6 7 8 9 10 11 12 13 14 15 16 17 18 19 20 21 22 23 24
000
FTUS43 KDLH 281401 AAB
TAFBRD
TAF AMD
KBRD 281401Z 2814/2912 12012G22KT P6SM OVC009
      TEMPO 2815/2816 SCT010 BKN035
     FM281600 18015G25KT P6SM VCTS SCT020 BKN050CB
      TEMPO 2819/2823 4SM TSRA BKN040CB
     FM290000 22012KT P6SM SKC=

USA.gov is the U.S. government's official web portal to all federal, state and local government web resources and services.